createdAt,value
2019-05-05T00:00:01.587Z,100600.98
2019-05-05T00:02:56.242Z,100600.11
2019-05-05T00:05:35.222Z,100606.68
2019-05-05T00:08:04.873Z,100603.06
2019-05-05T00:11:05.066Z,100603.48
2019-05-05T00:13:52.613Z,100612.02
2019-05-05T00:16:29.994Z,100612.38
2019-05-05T00:18:58.417Z,100612.42
2019-05-05T00:21:26.334Z,100618.42
2019-05-05T00:23:55.311Z,100616.68
2019-05-05T00:26:24.357Z,100619.87
2019-05-05T00:28:55.252Z,100618.42
2019-05-05T00:31:24.303Z,100622.25
2019-05-05T00:33:54.355Z,100620.39
2019-05-05T00:36:24.428Z,100621.17
2019-05-05T00:38:52.170Z,100621.11
2019-05-05T00:41:20.190Z,100627.58
2019-05-05T00:43:48.547Z,100626.69
2019-05-05T00:46:55.058Z,100626.69
2019-05-05T00:49:25.022Z,100629.59
2019-05-05T00:51:54.676Z,100638.64
2019-05-05T00:54:24.394Z,100637.59
2019-05-05T00:56:54.440Z,100639.59
2019-05-05T00:59:25.266Z,100639.19
2019-05-05T01:02:04.644Z,100640.95
2019-05-05T01:04:44.537Z,100646.87
2019-05-05T01:07:14.291Z,100645.47
2019-05-05T01:09:45.133Z,100635.07
2019-05-05T01:12:14.956Z,100645.41
2019-05-05T01:14:44.750Z,100655.34
2019-05-05T01:17:14.722Z,100650.93
2019-05-05T01:19:46.717Z,100654.05
2019-05-05T01:22:14.423Z,100652.81
2019-05-05T01:24:42.543Z,100654.63
2019-05-05T01:27:11.083Z,100653.41
2019-05-05T01:29:39.651Z,100656.92
2019-05-05T01:32:11.265Z,100658.98
2019-05-05T01:34:44.352Z,100658.98
2019-05-05T01:37:38.554Z,100664.22
2019-05-05T01:40:25.410Z,100662.08
2019-05-05T01:42:54.756Z,100668.02
2019-05-05T01:45:24.231Z,100671.85
2019-05-05T01:47:54.546Z,100673.09
2019-05-05T01:50:24.699Z,100669.44
2019-05-05T01:52:53.106Z,100678.25
2019-05-05T01:55:21.101Z,100674.11
2019-05-05T01:57:49.912Z,100679.56
2019-05-05T02:00:17.805Z,100681.92
2019-05-05T02:02:46.171Z,100677.73
2019-05-05T02:05:14.776Z,100686.78
2019-05-05T02:07:44.886Z,100688.42
2019-05-05T02:10:15.251Z,100682.16
2019-05-05T02:12:44.726Z,100682.42
2019-05-05T02:15:14.974Z,100683.25
2019-05-05T02:17:44.544Z,100693.58
2019-05-05T02:20:39.042Z,100691.39
2019-05-05T02:23:07.404Z,100687.45
2019-05-05T02:25:35.324Z,100695.38
2019-05-05T02:28:04.472Z,100693.69
2019-05-05T02:30:41.083Z,100704.63
2019-05-05T02:33:12.011Z,100700.27
2019-05-05T02:35:45.625Z,100705.45
2019-05-05T02:38:15.413Z,100701.91
2019-05-05T02:40:45.229Z,100702.17
2019-05-05T02:43:15.099Z,100701.28
2019-05-05T02:46:25.351Z,100702.91
2019-05-05T02:48:55.294Z,100707.11
2019-05-05T02:51:25.942Z,100705.82
2019-05-05T02:53:55.988Z,100707.27
2019-05-05T02:56:29.304Z,100713.05
2019-05-05T02:59:01.220Z,100707.11
2019-05-05T03:01:55.373Z,100715.66
2019-05-05T03:04:24.467Z,100722.98
2019-05-05T03:06:55.021Z,100719.53
2019-05-05T03:09:25.482Z,100724.61
2019-05-05T03:11:55.730Z,100723.19
2019-05-05T03:14:26.575Z,100727.11
2019-05-05T03:16:55.001Z,100733.80
2019-05-05T03:19:24.188Z,100737.69
2019-05-05T03:21:54.554Z,100738.18
2019-05-05T03:24:23.643Z,100743.98
2019-05-05T03:26:53.663Z,100745.67
2019-05-05T03:29:24.177Z,100748.97
2019-05-05T03:31:55.943Z,100745.53
2019-05-05T03:34:24.008Z,100744.55
2019-05-05T03:36:53.599Z,100744.47
2019-05-05T03:39:24.677Z,100750.02
2019-05-05T03:42:13.972Z,100748.64
2019-05-05T03:45:14.513Z,100758.52
2019-05-05T03:47:44.097Z,100756.64
2019-05-05T03:50:14.312Z,100760.05
2019-05-05T03:52:43.843Z,100760.81
2019-05-05T03:55:13.819Z,100767.53
2019-05-05T03:57:44.532Z,100770.66
2019-05-05T04:00:15.217Z,100768.30
2019-05-05T04:02:53.755Z,100769.11
2019-05-05T04:05:41.565Z,100768.70
2019-05-05T04:08:11.002Z,100772.40
2019-05-05T04:10:38.964Z,100768.85
2019-05-05T04:13:06.805Z,100771.45
2019-05-05T04:15:36.057Z,100774.65
2019-05-05T04:18:34.114Z,100784.14
2019-05-05T04:21:03.888Z,100788.01
2019-05-05T04:23:33.471Z,100792.95
2019-05-05T04:26:03.700Z,100794.80
2019-05-05T04:28:31.275Z,100793.59
2019-05-05T04:30:59.542Z,100794.89
2019-05-05T04:33:27.722Z,100798.73
2019-05-05T04:35:56.028Z,100796.09
2019-05-05T04:38:24.351Z,100804.88
2019-05-05T04:40:54.188Z,100805.14
2019-05-05T04:43:24.604Z,100805.12
2019-05-05T04:45:54.163Z,100806.11
2019-05-05T04:48:43.452Z,100808.78
2019-05-05T04:51:16.487Z,100816.16
2019-05-05T04:54:03.779Z,100825.53
2019-05-05T04:56:34.126Z,100826.19
2019-05-05T04:59:03.860Z,100831.42
2019-05-05T05:01:33.560Z,100839.52
2019-05-05T05:04:21.331Z,100846.43
2019-05-05T05:06:54.088Z,100846.34
2019-05-05T05:09:23.618Z,100850.80
2019-05-05T05:11:51.701Z,100849.27
2019-05-05T05:14:19.637Z,100855.45
2019-05-05T05:16:48.101Z,100852.55
2019-05-05T05:19:16.123Z,100857.47
2019-05-05T05:21:44.040Z,100856.70
2019-05-05T05:24:11.830Z,100856.02
2019-05-05T05:26:39.693Z,100853.36
2019-05-05T05:29:07.898Z,100858.60
2019-05-05T05:31:36.199Z,100853.93
2019-05-05T05:34:04.470Z,100858.77
2019-05-05T05:36:33.889Z,100860.87
2019-05-05T05:39:08.672Z,100865.70
2019-05-05T05:41:43.728Z,100859.86
2019-05-05T05:44:44.442Z,100864.20
2019-05-05T05:47:24.368Z,100867.69
2019-05-05T05:50:07.438Z,100869.29
2019-05-05T05:52:35.753Z,100871.33
2019-05-05T05:55:04.175Z,100874.76
2019-05-05T05:57:34.599Z,100871.91
2019-05-05T06:00:04.982Z,100873.72
2019-05-05T06:02:33.931Z,100877.20
2019-05-05T06:05:01.803Z,100883.47
2019-05-05T06:07:29.952Z,100883.47
2019-05-05T06:09:58.628Z,100886.08
2019-05-05T06:12:27.251Z,100887.77
2019-05-05T06:14:55.254Z,100881.37
2019-05-05T06:17:23.821Z,100892.19
2019-05-05T06:19:53.473Z,100898.80
2019-05-05T06:22:28.616Z,100891.93
2019-05-05T06:24:53.947Z,100894.66
2019-05-05T06:27:23.594Z,100891.77
2019-05-05T06:29:51.559Z,100893.43
2019-05-05T06:32:20.315Z,100899.20
2019-05-05T06:34:49.699Z,100900.69
2019-05-05T06:37:17.752Z,100894.23
2019-05-05T06:39:47.721Z,100901.37
2019-05-05T06:42:39.342Z,100905.25
2019-05-05T06:45:19.066Z,100904.44
2019-05-05T06:47:47.214Z,100908.50
2019-05-05T06:50:15.394Z,100916.13
2019-05-05T06:52:46.534Z,100913.29
2019-05-05T06:55:14.085Z,100922.94
2019-05-05T06:57:44.309Z,100919.55
2019-05-05T07:00:13.976Z,100917.55
2019-05-05T07:02:42.127Z,100927.72
2019-05-05T07:05:09.963Z,100927.84
2019-05-05T07:07:37.833Z,100929.37
2019-05-05T07:10:07.663Z,100929.90
2019-05-05T07:12:36.048Z,100936.13
2019-05-05T07:15:04.384Z,100934.05
2019-05-05T07:17:33.855Z,100932.50
2019-05-05T07:20:03.758Z,100938.48
2019-05-05T07:22:34.701Z,100941.47
2019-05-05T07:25:04.729Z,100945.84
2019-05-05T07:27:33.837Z,100941.17
2019-05-05T07:30:02.063Z,100945.62
2019-05-05T07:32:29.990Z,100948.73
2019-05-05T07:35:17.422Z,100942.86
2019-05-05T07:37:48.818Z,100939.57
2019-05-05T07:40:17.465Z,100936.42
2019-05-05T07:42:45.431Z,100939.48
2019-05-05T07:45:22.544Z,100937.52
2019-05-05T07:47:43.655Z,100940.67
2019-05-05T07:50:26.432Z,100936.94
2019-05-05T07:52:43.855Z,100939.70
2019-05-05T07:55:14.364Z,100931.64
2019-05-05T07:57:43.501Z,100933.09
2019-05-05T08:00:12.150Z,100933.83
2019-05-05T08:02:40.029Z,100943.55
2019-05-05T08:05:08.023Z,100943.36
2019-05-05T08:07:35.953Z,100942.22
2019-05-05T08:10:04.667Z,100936.33
2019-05-05T08:12:34.193Z,100939.07
2019-05-05T08:15:04.334Z,100943.06
2019-05-05T08:17:58.990Z,100937.95
2019-05-05T08:20:31.131Z,100938.59
2019-05-05T08:23:00.247Z,100933.08
2019-05-05T08:26:04.572Z,100936.25
2019-05-05T08:28:38.183Z,100938.06
2019-05-05T08:31:18.315Z,100944.63
2019-05-05T08:33:46.443Z,100936.86
2019-05-05T08:36:14.763Z,100937.34
2019-05-05T08:38:44.134Z,100938.61
2019-05-05T08:41:13.908Z,100938.63
2019-05-05T08:43:43.899Z,100937.22
2019-05-05T08:46:14.173Z,100933.52
2019-05-05T08:48:41.662Z,100940.91
2019-05-05T08:51:09.527Z,100941.83
2019-05-05T08:53:44.496Z,100930.09
2019-05-05T08:56:10.778Z,100936.17
2019-05-05T08:58:38.687Z,100942.14
2019-05-05T09:01:07.038Z,100931.56
2019-05-05T09:03:35.251Z,100942.17
2019-05-05T09:06:04.707Z,100939.86
2019-05-05T09:08:34.687Z,100948.27
2019-05-05T09:11:04.804Z,100950.70
2019-05-05T09:13:34.019Z,100946.41
2019-05-05T09:16:03.786Z,100948.44
2019-05-05T09:18:33.923Z,100946.49
2019-05-05T09:21:04.350Z,100936.31
2019-05-05T09:23:34.746Z,100939.66
2019-05-05T09:26:11.030Z,100939.65
2019-05-05T09:29:13.775Z,100940.17
2019-05-05T09:31:41.858Z,100943.02
2019-05-05T09:34:10.255Z,100942.84
2019-05-05T09:36:39.016Z,100947.20
2019-05-05T09:39:06.954Z,100948.52
2019-05-05T09:41:35.365Z,100936.92
2019-05-05T09:44:04.410Z,100933.17
2019-05-05T09:46:34.043Z,100935.27
2019-05-05T09:49:04.557Z,100941.50
2019-05-05T09:51:34.558Z,100943.09
2019-05-05T09:54:11.868Z,100946.70
2019-05-05T09:56:33.926Z,100938.91
2019-05-05T09:59:03.789Z,100935.81
2019-05-05T10:01:33.791Z,100944.99
2019-05-05T10:04:08.383Z,100940.91
2019-05-05T10:06:37.995Z,100940.78
2019-05-05T10:09:07.685Z,100949.88
2019-05-05T10:11:36.187Z,100945.20
2019-05-05T10:14:04.917Z,100945.36
2019-05-05T10:16:33.266Z,100952.70
2019-05-05T10:19:01.269Z,100946.16
2019-05-05T10:21:29.607Z,100950.04
2019-05-05T10:23:59.806Z,100954.67
2019-05-05T10:26:28.089Z,100958.94
2019-05-05T10:28:56.743Z,100955.92
2019-05-05T10:31:25.594Z,100954.40
2019-05-05T10:33:57.737Z,100963.07
2019-05-05T10:36:27.767Z,100965.56
2019-05-05T10:39:01.241Z,100965.71
2019-05-05T10:41:29.248Z,100955.85
2019-05-05T10:43:57.231Z,100957.18
2019-05-05T10:46:25.133Z,100953.58
2019-05-05T10:48:53.859Z,100957.89
2019-05-05T10:51:23.798Z,100963.15
2019-05-05T10:53:54.006Z,100963.19
2019-05-05T10:56:24.138Z,100964.35
2019-05-05T10:58:54.524Z,100965.48
2019-05-05T11:01:23.635Z,100961.28
2019-05-05T11:03:52.364Z,100967.41
2019-05-05T11:06:20.355Z,100972.44
2019-05-05T11:08:49.006Z,100967.22
2019-05-05T11:11:16.965Z,100967.25
2019-05-05T11:13:46.734Z,100966.88
2019-05-05T11:16:14.718Z,100965.33
2019-05-05T11:18:42.939Z,100969.06
2019-05-05T11:21:11.235Z,100973.89
2019-05-05T11:23:39.312Z,100968.15
2019-05-05T11:26:07.706Z,100977.92
2019-05-05T11:28:36.042Z,100969.02
2019-05-05T11:31:04.599Z,100971.02
2019-05-05T11:33:40.900Z,100979.69
2019-05-05T11:36:14.314Z,100980.08
2019-05-05T11:39:16.148Z,100984.52
2019-05-05T11:41:49.949Z,100972.51
2019-05-05T11:44:17.957Z,100960.95
2019-05-05T11:46:46.494Z,100962.08
2019-05-05T11:49:14.980Z,100969.61
2019-05-05T11:51:44.333Z,100976.06
2019-05-05T11:54:14.052Z,100976.47
2019-05-05T11:56:44.511Z,100972.64
2019-05-05T11:59:14.409Z,100979.08
2019-05-05T12:01:44.076Z,100976.77
2019-05-05T12:04:14.554Z,100988.31
2019-05-05T12:06:44.390Z,100984.95
2019-05-05T12:09:20.844Z,100982.92
2019-05-05T12:11:48.942Z,100981.91
2019-05-05T12:14:26.487Z,100971.82
2019-05-05T12:16:54.345Z,100969.02
2019-05-05T12:19:24.376Z,100962.69
2019-05-05T12:21:54.610Z,100961.79
2019-05-05T12:27:27.734Z,100963.69
2019-05-05T12:30:20.947Z,100965.12
2019-05-05T12:32:49.521Z,100963.50
2019-05-05T12:35:23.059Z,100965.47
2019-05-05T12:37:53.808Z,100974.62
2019-05-05T12:40:22.236Z,100970.42
2019-05-05T12:42:54.220Z,100973.56
2019-05-05T12:45:25.020Z,100979.32
2019-05-05T12:48:13.485Z,100976.58
2019-05-05T12:50:41.626Z,100964.20
2019-05-05T12:53:10.528Z,100963.73
2019-05-05T12:55:41.710Z,100953.78
2019-05-05T12:58:08.421Z,100957.27
2019-05-05T13:00:38.576Z,100955.27
2019-05-05T13:03:06.585Z,100948.72
2019-05-05T13:05:35.029Z,100950.56
2019-05-05T13:08:03.898Z,100943.69
2019-05-05T13:10:33.688Z,100952.86
2019-05-05T13:13:03.820Z,100950.78
2019-05-05T13:15:33.886Z,100947.42
2019-05-05T13:18:03.655Z,100938.59
2019-05-05T13:20:37.981Z,100944.52
2019-05-05T13:23:31.401Z,100945.25
2019-05-05T13:26:04.519Z,100945.14
2019-05-05T13:28:34.402Z,100937.41
2019-05-05T13:31:04.871Z,100934.48
2019-05-05T13:33:37.219Z,100933.70
2019-05-05T13:36:04.900Z,100939.36
2019-05-05T13:38:34.326Z,100937.29
2019-05-05T13:41:03.722Z,100935.47
2019-05-05T13:43:31.848Z,100938.70
2019-05-05T13:46:05.471Z,100931.87
2019-05-05T13:48:33.913Z,100930.50
2019-05-05T13:51:04.278Z,100926.19
2019-05-05T13:53:34.253Z,100930.00
2019-05-05T13:56:11.392Z,100925.59
2019-05-05T13:58:34.304Z,100924.34
2019-05-05T14:01:03.720Z,100919.51
2019-05-05T14:03:33.565Z,100919.22
2019-05-05T14:06:01.708Z,100909.08
2019-05-05T14:08:30.037Z,100908.36
2019-05-05T14:10:58.526Z,100906.23
2019-05-05T14:13:26.927Z,100900.58
2019-05-05T14:15:55.846Z,100913.23
2019-05-05T14:18:23.906Z,100906.66
2019-05-05T14:20:52.354Z,100902.97
2019-05-05T14:23:20.776Z,100902.66
2019-05-05T14:25:49.813Z,100908.13
2019-05-05T14:28:18.283Z,100905.27
2019-05-05T14:31:00.900Z,100909.28
2019-05-05T14:33:34.166Z,100897.16
2019-05-05T14:36:24.766Z,100898.66
2019-05-05T14:38:55.580Z,100894.53
2019-05-05T14:41:23.691Z,100895.06
2019-05-05T14:43:53.944Z,100896.14
2019-05-05T14:46:23.381Z,100898.63
2019-05-05T14:48:53.401Z,100888.41
2019-05-05T14:51:21.793Z,100897.05
2019-05-05T14:53:50.256Z,100894.09
2019-05-05T14:56:18.686Z,100890.17
2019-05-05T14:58:46.750Z,100885.73
2019-05-05T15:01:14.826Z,100886.05
2019-05-05T15:03:44.476Z,100888.95
2019-05-05T15:06:30.067Z,100886.31
2019-05-05T15:09:20.597Z,100891.80
2019-05-05T15:12:24.140Z,100880.20
2019-05-05T15:14:54.484Z,100880.04
2019-05-05T15:17:24.498Z,100875.83
2019-05-05T15:19:54.081Z,100875.98
2019-05-05T15:22:23.888Z,100880.78
2019-05-05T15:24:53.600Z,100879.45
2019-05-05T15:27:24.220Z,100883.70
2019-05-05T15:29:54.276Z,100885.12
2019-05-05T15:32:23.968Z,100888.48
2019-05-05T15:34:54.517Z,100897.53
2019-05-05T15:37:23.771Z,100891.45
2019-05-05T15:39:53.557Z,100899.62
2019-05-05T15:42:21.736Z,100904.45
2019-05-05T15:44:49.955Z,100904.30
2019-05-05T15:47:19.076Z,100905.53
2019-05-05T15:49:47.231Z,100904.89
2019-05-05T15:52:15.145Z,100899.95
2019-05-05T15:54:44.628Z,100907.53
2019-05-05T15:57:14.556Z,100907.33
2019-05-05T15:59:43.650Z,100908.94
2019-05-05T16:02:13.355Z,100908.22
2019-05-05T16:04:42.051Z,100907.47
2019-05-05T16:07:09.951Z,100903.79
2019-05-05T16:09:38.224Z,100905.38
2019-05-05T16:12:06.258Z,100912.78
2019-05-05T16:14:36.646Z,100909.03
2019-05-05T16:17:24.662Z,100900.74
2019-05-05T16:19:58.623Z,100898.95
2019-05-05T16:22:40.359Z,100907.14
2019-05-05T16:25:14.393Z,100908.45
2019-05-05T16:27:44.557Z,100906.01
2019-05-05T16:30:14.458Z,100903.62
2019-05-05T16:32:42.606Z,100906.91
2019-05-05T16:35:10.980Z,100913.21
2019-05-05T16:37:38.972Z,100907.09
2019-05-05T16:40:07.700Z,100909.52
2019-05-05T16:42:35.619Z,100909.46
2019-05-05T16:45:04.658Z,100908.41
2019-05-05T16:47:33.649Z,100908.38
2019-05-05T16:50:04.099Z,100907.23
2019-05-05T16:52:40.106Z,100903.92
2019-05-05T16:55:17.939Z,100908.77
2019-05-05T16:57:46.039Z,100909.56
2019-05-05T17:00:14.471Z,100909.19
2019-05-05T17:02:44.481Z,100915.14
2019-05-05T17:05:13.693Z,100909.33
2019-05-05T17:07:41.796Z,100914.09
2019-05-05T17:10:09.887Z,100909.98
2019-05-05T17:12:38.444Z,100910.27
2019-05-05T17:15:22.105Z,100918.67
2019-05-05T17:18:11.238Z,100918.44
2019-05-05T17:20:46.481Z,100916.61
2019-05-05T17:23:15.586Z,100914.85
2019-05-05T17:25:43.898Z,100913.87
2019-05-05T17:28:13.646Z,100910.69
2019-05-05T17:30:43.535Z,100913.70
2019-05-05T17:33:11.617Z,100910.92
2019-05-05T17:35:39.904Z,100909.83
2019-05-05T17:38:09.641Z,100914.66
2019-05-05T17:40:56.302Z,100920.23
2019-05-05T17:43:37.179Z,100922.00
2019-05-05T17:46:13.391Z,100921.00
2019-05-05T17:48:46.580Z,100920.64
2019-05-05T17:51:46.186Z,100921.02
2019-05-05T17:54:34.121Z,100930.04
2019-05-05T17:57:03.534Z,100932.33
2019-05-05T17:59:33.560Z,100929.55
2019-05-05T18:02:01.409Z,100932.75
2019-05-05T18:04:29.378Z,100934.34
2019-05-05T18:07:21.231Z,100934.78
2019-05-05T18:10:21.182Z,100939.63
2019-05-05T18:13:11.419Z,100944.65
2019-05-05T18:16:10.891Z,100940.87
2019-05-05T18:18:39.174Z,100943.97
2019-05-05T18:21:07.407Z,100944.22
2019-05-05T18:23:35.368Z,100946.38
2019-05-05T18:26:04.097Z,100949.50
2019-05-05T18:28:34.080Z,100941.63
2019-05-05T18:31:02.244Z,100947.45
2019-05-05T18:33:59.188Z,100949.30
2019-05-05T18:36:27.184Z,100951.51
2019-05-05T18:38:55.030Z,100943.73
2019-05-05T18:41:46.765Z,100951.71
2019-05-05T18:44:19.448Z,100948.24
2019-05-05T18:47:06.963Z,100951.81
2019-05-05T18:49:35.279Z,100951.41
2019-05-05T18:52:04.096Z,100960.21
2019-05-05T18:54:33.974Z,100962.02
2019-05-05T18:57:02.218Z,100966.42
2019-05-05T18:59:30.389Z,100978.26
2019-05-05T19:02:09.870Z,100979.19
2019-05-05T19:04:49.838Z,100982.72
2019-05-05T19:07:24.620Z,100983.59
2019-05-05T19:09:54.918Z,100991.50
2019-05-05T19:12:24.237Z,100993.74
2019-05-05T19:14:54.854Z,100993.77
2019-05-05T19:17:23.535Z,100992.02
2019-05-05T19:19:55.216Z,101004.22
2019-05-05T19:22:23.568Z,101001.64
2019-05-05T19:24:51.369Z,101003.81
2019-05-05T19:27:19.940Z,101009.95
2019-05-05T19:29:48.683Z,101013.89
2019-05-05T19:32:17.319Z,101013.47
2019-05-05T19:34:45.454Z,101022.20
2019-05-05T19:37:13.994Z,101017.42
2019-05-05T19:39:42.103Z,101020.94
2019-05-05T19:42:09.969Z,101020.05
2019-05-05T19:44:38.618Z,101027.88
2019-05-05T19:47:15.114Z,101021.80
2019-05-05T19:49:47.893Z,101025.30
2019-05-05T19:52:16.238Z,101020.05
2019-05-05T19:54:47.261Z,101024.35
2019-05-05T19:57:14.419Z,101024.77
2019-05-05T19:59:44.720Z,101026.06
2019-05-05T20:02:12.911Z,101024.71
2019-05-05T20:04:41.220Z,101029.03
2019-05-05T20:07:09.363Z,101032.50
2019-05-05T20:09:37.279Z,101028.55
2019-05-05T20:12:07.490Z,101037.23
2019-05-05T20:14:35.484Z,101035.03
2019-05-05T20:17:11.984Z,101038.91
2019-05-05T20:19:44.254Z,101037.09
2019-05-05T20:22:14.468Z,101036.58
2019-05-05T20:24:44.488Z,101033.95
2019-05-05T20:27:13.942Z,101043.51
2019-05-05T20:29:42.134Z,101039.52
2019-05-05T20:32:10.218Z,101049.03
2019-05-05T20:34:56.584Z,101050.22
2019-05-05T20:37:30.814Z,101043.20
2019-05-05T20:40:00.459Z,101048.78
2019-05-05T20:42:28.287Z,101040.87
2019-05-05T20:44:56.155Z,101049.94
2019-05-05T20:47:24.342Z,101046.83
2019-05-05T20:49:53.897Z,101047.17
2019-05-05T20:52:23.716Z,101048.39
2019-05-05T20:54:53.743Z,101039.22
2019-05-05T20:57:21.997Z,101047.52
2019-05-05T20:59:50.777Z,101048.81
2019-05-05T21:05:25.886Z,101055.17
2019-05-05T21:07:54.596Z,101059.41
2019-05-05T21:10:24.145Z,101054.23
2019-05-05T21:12:54.420Z,101050.20
2019-05-05T21:15:24.495Z,101048.89
2019-05-05T21:17:54.095Z,101044.83
2019-05-05T21:20:24.107Z,101050.42
2019-05-05T21:23:03.505Z,101054.28
2019-05-05T21:25:33.983Z,101056.01
2019-05-05T21:28:03.762Z,101052.88
2019-05-05T21:30:33.701Z,101054.52
2019-05-05T21:33:04.199Z,101056.14
2019-05-05T21:35:31.926Z,101047.88
2019-05-05T21:37:59.744Z,101052.66
2019-05-05T21:40:27.627Z,101052.62
2019-05-05T21:42:55.945Z,101056.44
2019-05-05T21:45:25.058Z,101053.30
2019-05-05T21:47:54.919Z,101056.24
2019-05-05T21:50:33.770Z,101053.56
2019-05-05T21:53:10.522Z,101049.70
2019-05-05T21:55:44.089Z,101055.23
2019-05-05T21:58:22.381Z,101050.92
2019-05-05T22:01:17.723Z,101055.56
2019-05-05T22:03:45.594Z,101062.94
2019-05-05T22:06:14.592Z,101067.72
2019-05-05T22:08:43.208Z,101061.05
2019-05-05T22:11:11.480Z,101061.25
2019-05-05T22:13:39.391Z,101057.82
2019-05-05T22:16:07.266Z,101057.86
2019-05-05T22:18:35.205Z,101049.88
2019-05-05T22:21:21.187Z,101054.20
2019-05-05T22:24:07.718Z,101053.83
2019-05-05T22:26:35.664Z,101055.58
2019-05-05T22:29:04.844Z,101059.26
2019-05-05T22:31:34.612Z,101060.09
2019-05-05T22:34:03.647Z,101059.11
2019-05-05T22:36:33.838Z,101060.00
2019-05-05T22:39:02.298Z,101058.13
2019-05-05T22:41:30.147Z,101054.91
2019-05-05T22:43:58.028Z,101055.70
2019-05-05T22:46:25.911Z,101050.97
2019-05-05T22:48:54.573Z,101055.55
2019-05-05T22:51:22.571Z,101055.08
2019-05-05T22:53:50.758Z,101054.63
2019-05-05T22:56:19.359Z,101059.16
2019-05-05T22:58:47.649Z,101056.11
2019-05-05T23:01:15.772Z,101062.06
2019-05-05T23:04:08.995Z,101052.12
2019-05-05T23:06:37.093Z,101061.07
2019-05-05T23:09:07.015Z,101056.25
2019-05-05T23:11:34.877Z,101054.48
2019-05-05T23:14:20.915Z,101055.51
2019-05-05T23:16:50.490Z,101048.89
2019-05-05T23:19:19.501Z,101049.73
2019-05-05T23:21:54.312Z,101046.13
2019-05-05T23:24:51.168Z,101046.84
2019-05-05T23:27:37.637Z,101046.48
2019-05-05T23:30:06.379Z,101049.31
2019-05-05T23:32:34.258Z,101050.61
2019-05-05T23:35:02.151Z,101046.20
2019-05-05T23:37:30.010Z,101048.66
2019-05-05T23:39:58.174Z,101046.94
2019-05-05T23:42:28.559Z,101047.18
2019-05-05T23:44:56.442Z,101044.86
2019-05-05T23:47:26.015Z,101043.52
2019-05-05T23:49:53.918Z,101037.79
2019-05-05T23:52:23.890Z,101046.79
2019-05-05T23:54:51.787Z,101034.67
2019-05-05T23:57:19.847Z,101047.48
2019-05-05T23:59:47.725Z,101039.19
